This is the latest recevied weather packets stored in our database for station/object VA7NIC-10. If no packets are shown the sender has not sent any weather packets the latest 10 day(s).
| Time | Temp. | Humidity | Pressure | Rain* | Wind** | Luminosity | Snow |
|---|---|---|---|---|---|---|---|
| 1777662421 | 17.78° C | 65% | 1015.9 hPa | 0 mm | - | - | - |
| 1777661521 | 17.78° C | 66% | 1016 hPa | 0 mm | - | - | - |
| 1777660622 | 17.78° C | 66% | 1016.1 hPa | 0 mm | - | - | - |
| 1777659722 | 16.67° C | 66% | 1016.1 hPa | 0 mm | - | - | - |
| 1777658822 | 16.11° C | 71% | 1016.3 hPa | 0 mm | - | - | - |
| 1777657922 | 15.56° C | 72% | 1016.3 hPa | 0 mm | - | - | - |
| 1777657022 | 15° C | 73% | 1016.4 hPa | 0 mm | - | - | - |
| 1777656122 | 15° C | 74% | 1016.4 hPa | 0 mm | - | - | - |
| 1777655222 | 13.89° C | 77% | 1016.6 hPa | 0 mm | - | - | - |
| 1777654322 | 13.33° C | 80% | 1016.7 hPa | 0 mm | - | - | - |
| 1777653421 | 12.78° C | 82% | 1016.8 hPa | 0 mm | - | - | - |
| 1777652521 | 12.22° C | 83% | 1016.8 hPa | 0 mm | - | - | - |
| 1777651621 | 11.67° C | 85% | 1016.8 hPa | 0 mm | - | - | - |
| 1777650721 | 11.11° C | 86% | 1016.8 hPa | 0 mm | - | - | - |
| 1777649821 | 10.56° C | 87% | 1016.7 hPa | 0 mm | - | - | - |
| 1777648921 | 10° C | 88% | 1016.6 hPa | 0 mm | - | - | - |
| 1777567922 | 12.22° C | 83% | 1021.1 hPa | 0 mm | - | - | - |
| 1777567022 | 11.67° C | 85% | 1021.2 hPa | 0 mm | - | - | - |
| 1777566122 | 11.11° C | 86% | 1021.2 hPa | 0 mm | - | - | - |
| 1777565222 | 10.56° C | 87% | 1021.3 hPa | 0 mm | - | - | - |
| 1777564322 | 10° C | 88% | 1021.5 hPa | 0 mm | - | - | - |
| 1777563422 | 9.44° C | 88% | 1021.5 hPa | 0 mm | - | - | - |
| 1777562522 | 9.44° C | 89% | 1021.5 hPa | 0 mm | - | - | - |
| 1777561621 | 8.89° C | 89% | 1021.5 hPa | 0 mm | - | - | - |
| 1777560721 | 8.33° C | 89% | 1021.5 hPa | 0 mm | - | - | - |
* Rain latest hour (hover to see other rain measurements)
** Current wind speed in m/s (hover to see current wind gust speed)